createdAt,value
2018-08-28T18:23:44.176Z,80.00
2018-08-28T18:26:13.853Z,80.60
2018-08-28T18:28:44.031Z,80.70
2018-08-28T18:31:14.942Z,80.80
2018-08-28T18:33:44.966Z,81.30
2018-08-28T18:36:14.803Z,81.70
2018-08-28T18:38:44.505Z,81.90
2018-08-28T18:41:14.295Z,82.20
2018-08-28T18:43:44.050Z,82.70
2018-08-28T18:46:13.903Z,83.00
2018-08-28T18:48:43.648Z,83.10
2018-08-28T18:51:13.586Z,83.00
2018-08-28T18:53:43.749Z,83.00
2018-08-28T18:56:13.438Z,83.60
2018-08-28T18:58:43.264Z,83.90
2018-08-28T19:01:12.992Z,83.80
2018-08-28T19:03:42.884Z,84.10
2018-08-28T19:06:12.866Z,84.40
2018-08-28T19:08:42.628Z,84.80
2018-08-28T19:11:12.684Z,85.50
2018-08-28T19:13:42.444Z,86.10
2018-08-28T19:16:12.805Z,86.20
2018-08-28T19:18:42.545Z,86.50
2018-08-28T19:21:12.264Z,86.30
2018-08-28T19:23:41.864Z,85.80
2018-08-28T19:26:11.771Z,86.20
2018-08-28T19:28:41.563Z,85.80
2018-08-28T19:31:11.424Z,86.10
2018-08-28T19:33:41.044Z,86.10
2018-08-28T19:36:10.716Z,86.30
2018-08-28T19:38:40.321Z,86.70
2018-08-28T19:41:10.160Z,87.80
2018-08-28T19:43:40.108Z,88.70
2018-08-28T19:46:10.303Z,89.20
2018-08-28T19:48:39.924Z,89.40
2018-08-28T19:51:11.204Z,89.70
2018-08-28T19:53:41.180Z,89.50
2018-08-28T19:56:11.257Z,89.80
2018-08-28T19:58:41.364Z,89.50
2018-08-28T20:01:10.963Z,90.10
2018-08-28T20:03:40.667Z,90.40
2018-08-28T20:06:10.166Z,90.70
2018-08-28T20:08:39.827Z,90.90
2018-08-28T20:11:09.352Z,90.80
2018-08-28T20:13:39.224Z,90.80
2018-08-28T20:16:08.763Z,91.00
2018-08-28T20:18:38.365Z,91.20
2018-08-28T20:21:08.674Z,91.70
2018-08-28T20:23:39.024Z,92.30
2018-08-28T20:26:08.644Z,92.90
2018-08-28T20:28:44.666Z,93.40
2018-08-28T20:31:15.430Z,93.80
2018-08-28T20:33:45.049Z,94.20
2018-08-28T20:36:14.891Z,94.40
2018-08-28T20:38:44.767Z,94.50
2018-08-28T20:41:14.594Z,94.80
2018-08-28T20:43:44.733Z,95.30
2018-08-28T20:46:14.521Z,95.30
2018-08-28T20:48:44.236Z,95.70
2018-08-28T20:51:14.028Z,95.90
2018-08-28T20:53:55.050Z,96.20
2018-08-28T20:56:24.764Z,96.60
2018-08-28T20:58:54.961Z,96.70
2018-08-28T21:01:24.865Z,97.20
2018-08-28T21:03:54.645Z,97.40
2018-08-28T21:06:24.835Z,97.40
2018-08-28T21:08:54.709Z,97.70
2018-08-28T21:11:24.748Z,98.30
2018-08-28T21:13:54.690Z,98.70
2018-08-28T21:16:24.445Z,99.10
2018-08-28T21:18:54.243Z,99.50
2018-08-28T21:21:23.923Z,99.80
2018-08-28T21:23:53.843Z,99.90
2018-08-28T21:26:24.125Z,99.90
2018-08-28T21:28:54.076Z,99.90
2018-08-28T21:31:24.203Z,99.90
2018-08-28T21:33:54.224Z,99.90
2018-08-28T21:36:24.063Z,99.90
2018-08-28T21:38:55.303Z,99.90
2018-08-28T21:41:24.883Z,99.90
2018-08-28T21:43:54.703Z,99.90
2018-08-28T21:46:24.682Z,99.90
2018-08-28T21:48:54.522Z,99.90
2018-08-28T21:51:24.362Z,99.90
2018-08-28T21:53:54.201Z,99.90
2018-08-28T21:56:24.002Z,99.90
2018-08-28T21:58:54.283Z,99.90
2018-08-28T22:01:24.202Z,99.90
2018-08-28T22:03:54.192Z,99.90
2018-08-28T22:06:29.400Z,99.90
2018-08-28T22:08:59.260Z,99.90
2018-08-28T22:11:29.040Z,99.90
2018-08-28T22:13:58.641Z,99.90
2018-08-28T22:16:28.520Z,99.90
2018-08-28T22:18:59.240Z,99.90
2018-08-28T22:21:29.163Z,99.90
2018-08-28T22:23:58.821Z,99.90
2018-08-28T22:26:28.841Z,99.90
2018-08-28T22:28:58.920Z,99.90
2018-08-28T22:31:29.040Z,99.90
2018-08-28T22:33:58.662Z,99.90
2018-08-28T22:36:28.801Z,99.90
2018-08-28T22:38:58.622Z,99.90
2018-08-28T22:41:28.320Z,99.90
2018-08-28T22:43:58.204Z,99.90
2018-08-28T22:46:27.923Z,99.90
2018-08-28T22:48:57.963Z,99.90
2018-08-28T22:51:28.041Z,99.90
2018-08-28T22:53:57.768Z,99.90
2018-08-28T22:56:27.484Z,99.90
2018-08-28T22:58:58.767Z,99.90
2018-08-28T23:01:28.483Z,99.90
2018-08-28T23:03:58.822Z,99.90
2018-08-28T23:06:28.642Z,99.90
2018-08-28T23:08:58.642Z,99.90
2018-08-28T23:11:28.582Z,99.90
2018-08-28T23:14:03.202Z,99.90
2018-08-28T23:16:33.422Z,99.90
2018-08-28T23:19:03.151Z,99.90
2018-08-28T23:21:33.162Z,99.90
2018-08-28T23:24:02.862Z,99.90
2018-08-28T23:26:32.802Z,99.90
2018-08-28T23:29:02.982Z,99.90
2018-08-28T23:31:33.162Z,99.90
2018-08-28T23:34:03.222Z,99.90
2018-08-28T23:36:32.982Z,99.90
2018-08-28T23:39:03.076Z,99.90
2018-08-28T23:41:32.881Z,99.90
2018-08-28T23:44:02.561Z,99.90
2018-08-28T23:46:32.322Z,99.90
2018-08-28T23:49:02.365Z,99.90
2018-08-28T23:51:32.162Z,99.90
2018-08-28T23:54:02.422Z,99.90
2018-08-28T23:56:32.883Z,99.90
2018-08-28T23:59:02.623Z,99.90
